createdAt,value
2022-09-23T00:00:27.300Z,66.55
2022-09-23T00:03:13.418Z,66.64
2022-09-23T00:06:04.398Z,66.55
2022-09-23T00:08:50.609Z,66.63
2022-09-23T00:11:36.475Z,66.65
2022-09-23T00:14:21.739Z,66.73
2022-09-23T00:17:07.326Z,66.62
2022-09-23T00:19:54.198Z,66.61
2022-09-23T00:22:39.935Z,66.80
2022-09-23T00:25:25.314Z,66.61
2022-09-23T00:28:10.636Z,66.54
2022-09-23T00:30:56.396Z,66.85
2022-09-23T00:33:42.289Z,66.71
2022-09-23T00:36:29.142Z,66.93
2022-09-23T00:39:14.840Z,66.65
2022-09-23T00:42:00.128Z,66.50
2022-09-23T00:44:56.209Z,66.65
2022-09-23T00:47:48.177Z,66.73
2022-09-23T00:50:40.329Z,66.61
2022-09-23T00:53:26.765Z,66.48
2022-09-23T00:56:13.982Z,66.57
2022-09-23T00:59:01.209Z,66.55
2022-09-23T01:01:49.715Z,66.66
2022-09-23T01:04:36.622Z,66.72
2022-09-23T01:07:22.029Z,66.81
2022-09-23T01:10:08.836Z,66.64
2022-09-23T01:13:16.042Z,66.66
2022-09-23T01:16:13.440Z,66.61
2022-09-23T01:19:20.428Z,66.55
2022-09-23T01:22:18.602Z,66.52
2022-09-23T01:25:10.073Z,66.57
2022-09-23T01:28:10.813Z,66.75
2022-09-23T01:31:08.517Z,66.74
2022-09-23T01:34:06.708Z,66.64
2022-09-23T01:36:59.343Z,66.63
2022-09-23T01:40:01.835Z,66.87
2022-09-23T01:42:54.027Z,66.77
2022-09-23T01:45:44.360Z,66.86
2022-09-23T01:48:52.573Z,66.76
2022-09-23T01:51:42.754Z,66.58
2022-09-23T01:54:43.908Z,66.67
2022-09-23T01:57:38.984Z,66.47
2022-09-23T02:00:25.581Z,66.55
2022-09-23T02:03:17.799Z,66.45
2022-09-23T02:06:11.334Z,66.57
2022-09-23T02:09:02.048Z,66.53
2022-09-23T02:11:52.518Z,66.44
2022-09-23T02:14:49.001Z,66.58
2022-09-23T02:17:54.327Z,66.69
2022-09-23T02:20:40.247Z,66.63
2022-09-23T02:23:31.895Z,66.68
2022-09-23T02:26:29.543Z,66.43
2022-09-23T02:29:27.542Z,66.39
2022-09-23T02:32:39.085Z,66.48
2022-09-23T02:35:34.716Z,66.41
2022-09-23T02:38:32.189Z,66.45
2022-09-23T02:41:28.141Z,66.52
2022-09-23T02:44:18.642Z,66.61
2022-09-23T02:47:04.020Z,66.62
2022-09-23T02:49:49.417Z,66.59
2022-09-23T02:52:36.732Z,66.47
2022-09-23T02:55:25.451Z,66.51
2022-09-23T02:58:14.063Z,66.43
2022-09-23T03:01:21.814Z,66.64
2022-09-23T03:04:07.117Z,66.74
2022-09-23T03:07:06.330Z,66.90
2022-09-23T03:10:09.636Z,66.88
2022-09-23T03:13:14.700Z,66.46
2022-09-23T03:16:11.902Z,66.58
2022-09-23T03:19:03.761Z,66.61
2022-09-23T03:22:01.027Z,66.72
2022-09-23T03:24:53.297Z,66.65
2022-09-23T03:27:42.405Z,66.66
2022-09-23T03:30:29.902Z,66.74
2022-09-23T03:33:18.647Z,66.81
2022-09-23T03:36:26.917Z,66.77
2022-09-23T03:39:24.174Z,66.70
2022-09-23T03:42:31.813Z,66.83
2022-09-23T03:45:21.971Z,66.75
2022-09-23T03:48:08.752Z,66.83
2022-09-23T03:50:54.292Z,66.73
2022-09-23T03:53:39.756Z,66.73
2022-09-23T03:56:25.061Z,66.65
2022-09-23T03:59:12.038Z,67.67
2022-09-23T04:01:59.813Z,67.37
2022-09-23T04:04:45.652Z,67.22
2022-09-23T04:07:31.449Z,67.14
2022-09-23T04:10:16.683Z,66.98
2022-09-23T04:13:01.912Z,67.43
2022-09-23T04:15:50.083Z,67.09
2022-09-23T04:18:35.435Z,67.26
2022-09-23T04:21:21.338Z,66.99
2022-09-23T04:24:08.008Z,67.25
2022-09-23T04:26:55.412Z,67.24
2022-09-23T04:29:40.942Z,67.36
2022-09-23T04:32:26.285Z,67.23
2022-09-23T04:35:11.504Z,67.46
2022-09-23T04:37:56.894Z,67.07
2022-09-23T04:40:42.113Z,67.81
2022-09-23T04:43:27.387Z,67.17
2022-09-23T04:46:15.083Z,67.35
2022-09-23T04:49:00.700Z,67.09
2022-09-23T04:51:47.613Z,67.18
2022-09-23T04:54:33.096Z,66.89
2022-09-23T04:57:18.775Z,66.69
2022-09-23T05:00:05.422Z,66.29
2022-09-23T05:02:51.352Z,66.62
2022-09-23T05:05:36.632Z,67.30
2022-09-23T05:08:22.162Z,66.80
2022-09-23T05:11:09.249Z,67.01
2022-09-23T05:13:55.107Z,66.40
2022-09-23T05:16:40.907Z,66.60
2022-09-23T05:19:26.365Z,66.52
2022-09-23T05:22:11.787Z,66.37
2022-09-23T05:24:59.851Z,66.21
2022-09-23T05:27:45.072Z,66.43
2022-09-23T05:30:30.415Z,65.92
2022-09-23T05:33:15.516Z,65.84
2022-09-23T05:36:01.491Z,65.55
2022-09-23T05:38:48.640Z,65.51
2022-09-23T05:41:34.100Z,65.79
2022-09-23T05:44:19.643Z,65.86
2022-09-23T05:47:05.503Z,66.19
2022-09-23T05:49:59.673Z,66.38
2022-09-23T05:52:46.088Z,66.81
2022-09-23T05:55:31.546Z,67.04
2022-09-23T05:58:16.943Z,67.24
2022-09-23T06:01:09.551Z,67.06
2022-09-23T06:03:56.398Z,67.26
2022-09-23T06:06:42.735Z,66.91
2022-09-23T06:09:30.825Z,66.98
2022-09-23T06:12:20.090Z,66.96
2022-09-23T06:15:06.312Z,67.17
2022-09-23T06:17:51.432Z,66.95
2022-09-23T06:20:37.430Z,66.71
2022-09-23T06:23:26.630Z,66.68
2022-09-23T06:26:14.252Z,66.59
2022-09-23T06:29:01.593Z,66.72
2022-09-23T06:31:49.753Z,66.56
2022-09-23T06:34:47.442Z,66.43
2022-09-23T06:37:36.066Z,66.52
2022-09-23T06:40:23.086Z,66.48
2022-09-23T06:43:08.600Z,66.46
2022-09-23T06:45:55.981Z,66.24
2022-09-23T06:48:46.144Z,66.24
2022-09-23T06:51:32.211Z,66.37
2022-09-23T06:54:17.744Z,66.41
2022-09-23T06:57:03.054Z,66.35
2022-09-23T06:59:48.306Z,65.90
2022-09-23T07:02:33.753Z,66.00
2022-09-23T07:05:19.044Z,65.94
2022-09-23T07:08:09.738Z,65.79
2022-09-23T07:11:00.151Z,65.90
2022-09-23T07:13:45.961Z,66.04
2022-09-23T07:16:32.895Z,65.96
2022-09-23T07:19:18.279Z,65.69
2022-09-23T07:22:03.775Z,65.50
2022-09-23T07:24:49.095Z,65.59
2022-09-23T07:27:34.377Z,65.36
2022-09-23T07:30:25.125Z,65.34
2022-09-23T07:33:27.083Z,65.26
2022-09-23T07:36:18.728Z,65.43
2022-09-23T07:39:04.035Z,65.22
2022-09-23T07:41:49.799Z,65.49
2022-09-23T07:44:35.645Z,65.04
2022-09-23T07:47:21.272Z,65.29
2022-09-23T07:50:11.536Z,65.21
2022-09-23T07:52:57.189Z,64.92
2022-09-23T07:55:42.362Z,64.92
2022-09-23T07:58:27.791Z,65.07
2022-09-23T08:01:13.766Z,64.89
2022-09-23T08:04:06.931Z,64.82
2022-09-23T08:06:55.417Z,65.13
2022-09-23T08:09:43.364Z,64.72
2022-09-23T08:12:32.154Z,64.98
2022-09-23T08:15:17.694Z,64.77
2022-09-23T08:18:03.224Z,64.90
2022-09-23T08:20:48.463Z,64.65
2022-09-23T08:23:33.969Z,64.74
2022-09-23T08:26:22.067Z,64.75
2022-09-23T08:29:10.202Z,64.91
2022-09-23T08:31:56.390Z,64.70
2022-09-23T08:34:42.543Z,64.58
2022-09-23T08:37:27.880Z,64.67
2022-09-23T08:40:13.779Z,64.30
2022-09-23T08:43:00.140Z,64.66
2022-09-23T08:45:46.352Z,64.44
2022-09-23T08:48:42.266Z,64.60
2022-09-23T08:51:41.298Z,64.45
2022-09-23T08:54:31.202Z,64.51
2022-09-23T08:57:34.043Z,64.69
2022-09-23T09:00:28.682Z,64.59
2022-09-23T09:03:24.829Z,64.78
2022-09-23T09:06:19.092Z,64.57
2022-09-23T09:09:09.471Z,64.35
2022-09-23T09:12:05.120Z,64.44
2022-09-23T09:14:57.109Z,64.50
2022-09-23T09:18:11.313Z,64.29
2022-09-23T09:20:59.889Z,64.80
2022-09-23T09:24:02.515Z,64.34
2022-09-23T09:26:48.093Z,64.55
2022-09-23T09:29:39.651Z,64.57
2022-09-23T09:32:47.314Z,64.63
2022-09-23T09:35:40.853Z,64.35
2022-09-23T09:38:27.583Z,64.26
2022-09-23T09:41:18.291Z,64.61
2022-09-23T09:44:21.147Z,64.30
2022-09-23T09:47:17.291Z,64.32
2022-09-23T09:50:08.531Z,64.37
2022-09-23T09:53:21.855Z,64.39
2022-09-23T09:56:16.546Z,64.29
2022-09-23T09:59:10.944Z,64.53
2022-09-23T10:02:21.574Z,64.20
2022-09-23T10:05:07.629Z,64.53
2022-09-23T10:07:54.449Z,64.24
2022-09-23T10:10:54.612Z,64.46
2022-09-23T10:13:39.718Z,64.35
2022-09-23T10:16:25.420Z,64.55
2022-09-23T10:19:27.745Z,64.44
2022-09-23T10:22:21.017Z,64.34
2022-09-23T10:25:36.536Z,64.26
2022-09-23T10:28:44.118Z,64.45
2022-09-23T10:31:32.317Z,64.42
2022-09-23T10:34:29.227Z,64.72
2022-09-23T10:37:32.275Z,64.27
2022-09-23T10:40:49.126Z,64.43
2022-09-23T10:44:11.453Z,64.34
2022-09-23T10:47:20.782Z,64.27
2022-09-23T10:50:23.760Z,64.40
2022-09-23T10:53:18.304Z,64.18
2022-09-23T10:56:06.642Z,64.18
2022-09-23T10:58:52.049Z,64.12
2022-09-23T11:02:02.119Z,63.83
2022-09-23T11:04:52.844Z,63.91
2022-09-23T11:08:18.333Z,64.02
2022-09-23T11:11:11.715Z,64.04
2022-09-23T11:14:24.460Z,64.09
2022-09-23T11:17:22.261Z,64.14
2022-09-23T11:20:31.646Z,64.18
2022-09-23T11:23:26.536Z,64.17
2022-09-23T11:26:33.260Z,64.26
2022-09-23T11:29:30.961Z,64.02
2022-09-23T11:32:39.668Z,64.02
2022-09-23T11:35:38.099Z,64.11
2022-09-23T11:38:45.861Z,63.87
2022-09-23T11:41:35.402Z,63.85
2022-09-23T11:44:29.406Z,63.94
2022-09-23T11:47:27.453Z,63.84
2022-09-23T11:50:25.909Z,63.86
2022-09-23T11:53:40.641Z,64.48
2022-09-23T11:56:49.267Z,64.18
2022-09-23T11:59:42.831Z,64.07
2022-09-23T12:02:33.625Z,63.97
2022-09-23T12:05:24.508Z,64.11
2022-09-23T12:08:23.314Z,64.13
2022-09-23T12:11:20.708Z,64.23
2022-09-23T12:14:23.808Z,63.84
2022-09-23T12:17:15.640Z,63.70
2022-09-23T12:20:19.492Z,64.09
2022-09-23T12:23:23.702Z,64.43
2022-09-23T12:26:17.276Z,63.45
2022-09-23T12:29:05.667Z,63.23
2022-09-23T12:31:51.166Z,63.20
2022-09-23T12:34:49.129Z,63.44
2022-09-23T12:37:38.992Z,63.35
2022-09-23T12:40:34.677Z,63.28
2022-09-23T12:43:34.920Z,63.50
2022-09-23T12:46:28.148Z,63.30
2022-09-23T12:49:37.229Z,63.31
2022-09-23T12:52:25.360Z,62.92
2022-09-23T12:55:23.272Z,63.31
2022-09-23T12:58:57.611Z,63.12
2022-09-23T13:01:44.382Z,63.30
2022-09-23T13:05:05.477Z,63.67
2022-09-23T13:07:51.056Z,63.76
2022-09-23T13:10:54.674Z,63.99
2022-09-23T13:13:45.730Z,64.08
2022-09-23T13:16:34.930Z,63.53
2022-09-23T13:19:40.950Z,63.25
2022-09-23T13:22:54.306Z,63.50
2022-09-23T13:25:43.693Z,63.34
2022-09-23T13:28:34.033Z,63.46
2022-09-23T13:31:21.249Z,63.60
2022-09-23T13:34:11.502Z,63.55
2022-09-23T13:36:56.754Z,63.46
2022-09-23T13:39:42.038Z,63.60
2022-09-23T13:42:30.255Z,63.33
2022-09-23T13:45:19.158Z,63.52
2022-09-23T13:48:08.429Z,63.73
2022-09-23T13:50:54.703Z,63.43
2022-09-23T13:53:40.411Z,63.50
2022-09-23T13:56:28.531Z,63.60
2022-09-23T13:59:30.229Z,63.36
2022-09-23T14:02:18.783Z,63.54
2022-09-23T14:05:12.550Z,63.58
2022-09-23T14:07:59.661Z,63.52
2022-09-23T14:10:48.099Z,63.52
2022-09-23T14:13:42.568Z,63.67
2022-09-23T14:16:29.892Z,63.98
2022-09-23T14:19:20.768Z,63.82
2022-09-23T14:22:09.249Z,64.08
2022-09-23T14:24:59.019Z,64.23
2022-09-23T14:27:47.165Z,63.95
2022-09-23T14:30:32.659Z,64.56
2022-09-23T14:33:23.468Z,64.06
2022-09-23T14:36:34.603Z,62.57
2022-09-23T14:39:20.389Z,63.32
2022-09-23T14:42:07.327Z,63.63
2022-09-23T14:44:52.874Z,63.73
2022-09-23T14:47:42.015Z,63.68
2022-09-23T14:50:37.992Z,63.56
2022-09-23T14:53:23.222Z,63.79
2022-09-23T14:56:11.450Z,63.78
2022-09-23T14:59:00.011Z,63.75
2022-09-23T15:01:45.751Z,63.87
2022-09-23T15:04:32.604Z,64.00
2022-09-23T15:07:20.823Z,63.92
2022-09-23T15:10:37.577Z,63.75
2022-09-23T15:13:36.760Z,64.07
2022-09-23T15:16:27.597Z,64.22
2022-09-23T15:19:19.859Z,63.81
2022-09-23T15:22:08.529Z,64.02
2022-09-23T15:25:08.311Z,63.82
2022-09-23T15:27:58.045Z,64.10
2022-09-23T15:30:43.631Z,64.07
2022-09-23T15:33:29.926Z,64.10
2022-09-23T15:36:19.518Z,64.49
2022-09-23T15:39:08.592Z,64.25
2022-09-23T15:41:53.810Z,64.62
2022-09-23T15:44:39.562Z,64.82
2022-09-23T15:47:25.354Z,64.62
2022-09-23T15:50:13.629Z,64.48
2022-09-23T15:52:59.500Z,64.34
2022-09-23T15:55:45.442Z,64.31
2022-09-23T15:58:30.927Z,64.24
2022-09-23T16:01:37.166Z,64.11
2022-09-23T16:04:23.029Z,64.16
2022-09-23T16:07:16.223Z,63.86
2022-09-23T16:10:01.440Z,64.10
2022-09-23T16:12:47.426Z,64.51
2022-09-23T16:15:33.772Z,64.24
2022-09-23T16:18:19.280Z,64.06
2022-09-23T16:21:06.473Z,63.36
2022-09-23T16:23:53.490Z,63.61
2022-09-23T16:26:40.544Z,62.79
2022-09-23T16:29:27.020Z,62.85
2022-09-23T16:32:12.834Z,63.08
2022-09-23T16:34:58.536Z,63.12
2022-09-23T16:37:47.021Z,63.22
2022-09-23T16:40:32.678Z,63.22
2022-09-23T16:43:19.567Z,63.32
2022-09-23T16:46:12.184Z,62.82
2022-09-23T16:48:58.989Z,63.62
2022-09-23T16:51:44.293Z,64.35
2022-09-23T16:54:29.970Z,64.66
2022-09-23T16:57:15.547Z,65.01
2022-09-23T17:00:19.414Z,65.19
2022-09-23T17:03:23.624Z,65.11
2022-09-23T17:06:13.094Z,65.29
2022-09-23T17:08:58.898Z,65.28
2022-09-23T17:11:48.239Z,65.31
2022-09-23T17:14:35.086Z,65.43
2022-09-23T17:17:21.837Z,64.92
2022-09-23T17:20:09.359Z,65.08
2022-09-23T17:22:56.250Z,65.21
2022-09-23T17:25:47.838Z,65.13
2022-09-23T17:28:35.883Z,65.01
2022-09-23T17:31:25.128Z,65.18
2022-09-23T17:34:12.978Z,65.21
2022-09-23T17:37:05.781Z,65.24
2022-09-23T17:39:52.307Z,65.27
2022-09-23T17:42:41.720Z,65.30
2022-09-23T17:45:29.428Z,65.24
2022-09-23T17:48:20.393Z,65.26
2022-09-23T17:51:14.437Z,65.20
2022-09-23T17:53:59.798Z,64.94
2022-09-23T17:56:46.587Z,65.39
2022-09-23T17:59:31.991Z,65.03
2022-09-23T18:02:20.927Z,65.17
2022-09-23T18:05:06.641Z,65.09
2022-09-23T18:07:52.101Z,64.80
2022-09-23T18:10:37.380Z,64.76
2022-09-23T18:13:23.691Z,64.56
2022-09-23T18:16:10.264Z,64.80
2022-09-23T18:18:58.195Z,64.95
2022-09-23T18:21:51.750Z,64.19
2022-09-23T18:24:41.103Z,64.13
2022-09-23T18:27:26.716Z,63.98
2022-09-23T18:30:12.800Z,63.98
2022-09-23T18:32:59.792Z,63.77
2022-09-23T18:35:45.299Z,63.67
2022-09-23T18:38:30.733Z,63.73
2022-09-23T18:41:16.916Z,63.57
2022-09-23T18:44:04.576Z,63.87
2022-09-23T18:46:55.656Z,63.80
2022-09-23T18:50:03.102Z,63.79
2022-09-23T18:52:53.586Z,63.67
2022-09-23T18:55:40.835Z,63.88
2022-09-23T18:58:26.488Z,63.68
2022-09-23T19:01:12.777Z,63.71
2022-09-23T19:04:00.337Z,63.74
2022-09-23T19:06:46.745Z,63.96
2022-09-23T19:09:32.188Z,63.92
2022-09-23T19:12:18.198Z,63.82
2022-09-23T19:15:04.938Z,63.97
2022-09-23T19:17:50.531Z,64.11
2022-09-23T19:20:36.269Z,64.12
2022-09-23T19:23:21.851Z,64.22
2022-09-23T19:26:12.913Z,63.94
2022-09-23T19:29:00.417Z,64.05
2022-09-23T19:31:45.915Z,64.15
2022-09-23T19:34:32.513Z,64.39
2022-09-23T19:37:18.373Z,64.46
2022-09-23T19:40:04.659Z,64.60
2022-09-23T19:42:55.090Z,64.71
2022-09-23T19:45:42.962Z,64.73
2022-09-23T19:48:28.517Z,64.70
2022-09-23T19:51:14.203Z,64.75
2022-09-23T19:54:01.200Z,64.84
2022-09-23T19:56:48.710Z,64.84
2022-09-23T19:59:34.252Z,65.06
2022-09-23T20:02:19.818Z,65.00
2022-09-23T20:05:06.104Z,65.07
2022-09-23T20:07:52.007Z,64.95
2022-09-23T20:10:39.738Z,65.12
2022-09-23T20:13:25.101Z,65.14
2022-09-23T20:16:14.178Z,65.73
2022-09-23T20:19:00.841Z,65.85
2022-09-23T20:22:05.856Z,66.12
2022-09-23T20:24:58.798Z,65.94
2022-09-23T20:27:49.464Z,66.20
2022-09-23T20:30:38.654Z,66.12
2022-09-23T20:33:24.206Z,66.18
2022-09-23T20:36:12.924Z,66.03
2022-09-23T20:39:00.511Z,65.94
2022-09-23T20:41:46.129Z,65.82
2022-09-23T20:44:32.094Z,65.79
2022-09-23T20:47:18.633Z,65.61
2022-09-23T20:50:04.219Z,65.56
2022-09-23T20:52:49.694Z,65.51
2022-09-23T20:55:35.040Z,65.31
2022-09-23T20:58:26.978Z,65.52
2022-09-23T21:01:12.366Z,66.23
2022-09-23T21:03:57.593Z,64.82
2022-09-23T21:06:42.952Z,64.82
2022-09-23T21:09:30.941Z,64.66
2022-09-23T21:12:16.487Z,64.52
2022-09-23T21:15:02.482Z,64.58
2022-09-23T21:17:47.614Z,64.19
2022-09-23T21:20:33.040Z,64.04
2022-09-23T21:23:18.484Z,64.13
2022-09-23T21:26:06.638Z,64.06
2022-09-23T21:28:58.302Z,64.08
2022-09-23T21:31:43.883Z,64.08
2022-09-23T21:34:30.094Z,63.87
2022-09-23T21:37:15.298Z,63.58
2022-09-23T21:40:19.193Z,63.74
2022-09-23T21:43:04.277Z,63.60
2022-09-23T21:45:56.963Z,63.58
2022-09-23T21:48:43.204Z,63.56
2022-09-23T21:51:30.808Z,63.63
2022-09-23T21:54:17.060Z,63.37
2022-09-23T21:57:02.251Z,63.42
2022-09-23T21:59:48.032Z,63.30
2022-09-23T22:02:33.836Z,63.51
2022-09-23T22:05:19.586Z,63.27
2022-09-23T22:08:05.240Z,63.27
2022-09-23T22:10:50.461Z,63.39
2022-09-23T22:13:35.757Z,62.94
2022-09-23T22:16:20.979Z,63.37
2022-09-23T22:19:07.158Z,63.48
2022-09-23T22:21:53.696Z,63.22
2022-09-23T22:24:44.176Z,63.42
2022-09-23T22:27:29.907Z,63.49
2022-09-23T22:30:33.832Z,63.01
2022-09-23T22:33:18.985Z,63.28
2022-09-23T22:36:04.473Z,63.06
2022-09-23T22:38:59.041Z,63.32
2022-09-23T22:41:44.852Z,63.23
2022-09-23T22:44:30.642Z,63.03
2022-09-23T22:47:20.209Z,63.31
2022-09-23T22:50:08.208Z,63.13
2022-09-23T22:52:53.558Z,63.25
2022-09-23T22:55:38.733Z,63.27
2022-09-23T22:58:32.097Z,63.20
2022-09-23T23:01:18.027Z,63.23
2022-09-23T23:04:04.182Z,63.15
2022-09-23T23:06:49.908Z,63.19
2022-09-23T23:09:35.527Z,63.23
2022-09-23T23:12:21.311Z,63.14
2022-09-23T23:15:09.331Z,63.04
2022-09-23T23:17:59.253Z,63.41
2022-09-23T23:20:45.630Z,62.90
2022-09-23T23:23:31.097Z,63.03
2022-09-23T23:26:22.253Z,63.24
2022-09-23T23:29:07.291Z,62.99
2022-09-23T23:31:52.556Z,63.07
2022-09-23T23:34:37.757Z,63.31
2022-09-23T23:37:22.919Z,63.20
2022-09-23T23:40:08.644Z,63.02
2022-09-23T23:42:54.458Z,62.99
2022-09-23T23:45:39.970Z,63.03
2022-09-23T23:48:25.725Z,62.71
2022-09-23T23:51:11.685Z,62.70
2022-09-23T23:53:59.675Z,63.02
2022-09-23T23:56:45.181Z,63.21
2022-09-23T23:59:31.092Z,62.78
